createdAt,value
2023-05-23T00:01:55.084Z,97314.19
2023-05-23T00:04:22.565Z,97319.28
2023-05-23T00:06:50.744Z,97323.19
2023-05-23T00:09:18.403Z,97326.88
2023-05-23T00:11:45.944Z,97321.22
2023-05-23T00:14:14.992Z,97331.81
2023-05-23T00:16:44.046Z,97332.84
2023-05-23T00:19:12.580Z,97343.25
2023-05-23T00:21:39.758Z,97338.56
2023-05-23T00:24:07.392Z,97347.47
2023-05-23T00:26:34.647Z,97352.69
2023-05-23T00:29:01.902Z,97352.75
2023-05-23T00:31:29.132Z,97358.22
2023-05-23T00:33:56.316Z,97367.22
2023-05-23T00:36:23.687Z,97358.81
2023-05-23T00:38:50.845Z,97360.69
2023-05-23T00:41:20.921Z,97361.13
2023-05-23T00:43:48.776Z,97367.06
2023-05-23T00:46:16.472Z,97368.47
2023-05-23T00:48:43.762Z,97370.09
2023-05-23T00:51:11.081Z,97371.00
2023-05-23T00:53:38.488Z,97373.53
2023-05-23T00:56:05.975Z,97365.22
2023-05-23T00:58:33.227Z,97372.06
2023-05-23T01:01:00.538Z,97364.09
2023-05-23T01:03:28.772Z,97361.91
2023-05-23T01:05:56.723Z,97366.97
2023-05-23T01:08:24.206Z,97353.69
2023-05-23T01:10:52.263Z,97356.88
2023-05-23T01:13:43.143Z,97361.31
2023-05-23T01:16:19.562Z,97361.03
2023-05-23T01:18:54.342Z,97361.47
2023-05-23T01:21:23.025Z,97365.34
2023-05-23T01:24:11.419Z,97358.78
2023-05-23T01:26:54.348Z,97361.63
2023-05-23T01:29:29.604Z,97359.97
2023-05-23T01:31:58.296Z,97364.88
2023-05-23T01:34:25.530Z,97372.72
2023-05-23T01:36:56.486Z,97365.19
2023-05-23T01:39:23.945Z,97365.38
2023-05-23T01:41:52.652Z,97370.78
2023-05-23T01:44:21.412Z,97375.63
2023-05-23T01:46:48.771Z,97376.34
2023-05-23T01:49:17.378Z,97377.47
2023-05-23T01:51:45.595Z,97368.00
2023-05-23T01:54:14.374Z,97373.59
2023-05-23T01:56:43.000Z,97371.19
2023-05-23T01:59:10.360Z,97378.22
2023-05-23T02:01:38.623Z,97386.09
2023-05-23T02:04:06.726Z,97363.97
2023-05-23T02:06:34.248Z,97371.84
2023-05-23T02:09:01.488Z,97379.53
2023-05-23T02:11:28.714Z,97383.53
2023-05-23T02:13:55.911Z,97388.81
2023-05-23T02:16:23.293Z,97397.91
2023-05-23T02:18:52.793Z,97392.34
2023-05-23T02:21:20.152Z,97386.09
2023-05-23T02:23:47.380Z,97384.03
2023-05-23T02:26:18.019Z,97392.22
2023-05-23T02:28:45.283Z,97391.72
2023-05-23T02:31:12.551Z,97394.78
2023-05-23T02:33:39.855Z,97396.47
2023-05-23T02:36:07.278Z,97401.69
2023-05-23T02:38:34.472Z,97393.94
2023-05-23T02:41:01.693Z,97401.31
2023-05-23T02:43:29.662Z,97405.09
2023-05-23T02:45:56.934Z,97407.50
2023-05-23T02:48:24.095Z,97415.13
2023-05-23T02:50:51.421Z,97422.22
2023-05-23T02:53:18.662Z,97423.59
2023-05-23T02:55:45.982Z,97414.41
2023-05-23T02:58:13.256Z,97418.75
2023-05-23T03:00:40.387Z,97418.94
2023-05-23T03:03:07.865Z,97415.13
2023-05-23T03:05:36.425Z,97418.53
2023-05-23T03:08:03.642Z,97416.63
2023-05-23T03:10:30.753Z,97416.38
2023-05-23T03:12:57.958Z,97417.91
2023-05-23T03:15:25.230Z,97407.28
2023-05-23T03:17:52.427Z,97407.50
2023-05-23T03:20:19.676Z,97419.09
2023-05-23T03:22:46.904Z,97402.59
2023-05-23T03:25:16.254Z,97407.22
2023-05-23T03:27:43.420Z,97407.28
2023-05-23T03:30:11.039Z,97402.97
2023-05-23T03:32:38.441Z,97398.56
2023-05-23T03:35:06.325Z,97388.53
2023-05-23T03:37:33.530Z,97391.97
2023-05-23T03:40:01.034Z,97389.50
2023-05-23T03:42:28.622Z,97402.03
2023-05-23T03:44:56.692Z,97396.72
2023-05-23T03:47:24.293Z,97400.63
2023-05-23T03:49:51.700Z,97400.63
2023-05-23T03:52:19.013Z,97395.34
2023-05-23T03:54:46.731Z,97390.34
2023-05-23T03:57:13.960Z,97399.59
2023-05-23T03:59:41.454Z,97398.34
2023-05-23T04:02:11.760Z,97399.81
2023-05-23T04:04:39.620Z,97397.13
2023-05-23T04:07:08.415Z,97395.56
2023-05-23T04:09:35.670Z,97403.34
2023-05-23T04:12:06.068Z,97398.63
2023-05-23T04:14:33.706Z,97393.56
2023-05-23T04:17:01.532Z,97402.13
2023-05-23T04:19:29.874Z,97400.81
2023-05-23T04:21:57.369Z,97400.31
2023-05-23T04:24:24.622Z,97397.31
2023-05-23T04:26:52.050Z,97409.63
2023-05-23T04:29:19.311Z,97399.25
2023-05-23T04:31:46.724Z,97405.16
2023-05-23T04:34:14.903Z,97404.03
2023-05-23T04:36:44.710Z,97406.41
2023-05-23T04:39:12.543Z,97412.19
2023-05-23T04:41:54.479Z,97409.56
2023-05-23T04:44:42.883Z,97415.06
2023-05-23T04:47:15.878Z,97407.25
2023-05-23T04:49:54.963Z,97419.41
2023-05-23T04:52:22.211Z,97421.13
2023-05-23T04:54:50.197Z,97429.06
2023-05-23T04:57:17.593Z,97421.44
2023-05-23T04:59:44.976Z,97419.94
2023-05-23T05:02:12.137Z,97418.72
2023-05-23T05:04:39.422Z,97421.38
2023-05-23T05:07:06.747Z,97427.84
2023-05-23T05:09:34.759Z,97422.47
2023-05-23T05:12:02.049Z,97427.91
2023-05-23T05:14:31.218Z,97426.69
2023-05-23T05:16:58.578Z,97440.34
2023-05-23T05:19:32.949Z,97427.28
2023-05-23T05:22:00.284Z,97442.50
2023-05-23T05:24:29.013Z,97436.06
2023-05-23T05:26:56.168Z,97449.81
2023-05-23T05:29:24.431Z,97459.41
2023-05-23T05:31:53.300Z,97457.00
2023-05-23T05:34:21.183Z,97453.78
2023-05-23T05:36:48.493Z,97458.78
2023-05-23T05:39:18.075Z,97463.28
2023-05-23T05:41:45.353Z,97457.63
2023-05-23T05:44:14.611Z,97461.09
2023-05-23T05:46:41.951Z,97459.38
2023-05-23T05:49:10.306Z,97470.56
2023-05-23T05:51:39.303Z,97468.53
2023-05-23T05:54:06.727Z,97479.00
2023-05-23T05:56:34.065Z,97477.75
2023-05-23T05:59:01.833Z,97471.97
2023-05-23T06:01:30.778Z,97466.47
2023-05-23T06:03:58.552Z,97486.38
2023-05-23T06:06:26.383Z,97487.56
2023-05-23T06:08:54.297Z,97477.69
2023-05-23T06:11:21.403Z,97478.78
2023-05-23T06:13:48.586Z,97483.09
2023-05-23T06:16:15.794Z,97485.84
2023-05-23T06:18:45.015Z,97485.59
2023-05-23T06:21:12.535Z,97475.31
2023-05-23T06:23:39.695Z,97487.88
2023-05-23T06:26:10.600Z,97484.75
2023-05-23T06:28:41.992Z,97479.03
2023-05-23T06:31:12.249Z,97495.78
2023-05-23T06:33:39.524Z,97486.66
2023-05-23T06:36:06.880Z,97487.22
2023-05-23T06:38:34.085Z,97485.31
2023-05-23T06:41:02.397Z,97493.72
2023-05-23T06:43:30.658Z,97481.75
2023-05-23T06:46:13.992Z,97488.41
2023-05-23T06:48:41.174Z,97489.06
2023-05-23T06:51:10.410Z,97489.75
2023-05-23T06:53:38.021Z,97492.16
2023-05-23T06:56:05.444Z,97497.66
2023-05-23T06:58:38.956Z,97493.06
2023-05-23T07:01:07.160Z,97497.00
2023-05-23T07:03:41.517Z,97493.25
2023-05-23T07:06:09.960Z,97495.88
2023-05-23T07:08:38.665Z,97499.97
2023-05-23T07:11:06.775Z,97510.75
2023-05-23T07:13:40.269Z,97501.53
2023-05-23T07:16:09.623Z,97509.28
2023-05-23T07:18:46.391Z,97500.22
2023-05-23T07:21:13.559Z,97498.78
2023-05-23T07:23:40.789Z,97490.28
2023-05-23T07:26:09.729Z,97497.19
2023-05-23T07:28:51.391Z,97499.78
2023-05-23T07:31:18.727Z,97492.03
2023-05-23T07:33:45.960Z,97500.31
2023-05-23T07:36:20.019Z,97491.50
2023-05-23T07:38:47.318Z,97493.09
2023-05-23T07:41:14.957Z,97489.84
2023-05-23T07:43:42.095Z,97495.91
2023-05-23T07:46:09.698Z,97486.78
2023-05-23T07:48:38.333Z,97496.94
2023-05-23T07:51:05.939Z,97489.09
2023-05-23T07:53:33.773Z,97495.03
2023-05-23T07:56:03.906Z,97496.38
2023-05-23T07:58:36.227Z,97498.81
2023-05-23T08:01:03.568Z,97498.44
2023-05-23T08:03:57.619Z,97501.38
2023-05-23T08:06:31.799Z,97499.13
2023-05-23T08:09:02.017Z,97489.03
2023-05-23T08:11:31.267Z,97490.03
2023-05-23T08:14:01.256Z,97475.41
2023-05-23T08:16:37.806Z,97483.16
2023-05-23T08:19:10.410Z,97478.41
2023-05-23T08:21:38.373Z,97483.31
2023-05-23T08:24:05.818Z,97486.09
2023-05-23T08:26:37.469Z,97477.63
2023-05-23T08:29:06.642Z,97486.34
2023-05-23T08:31:36.623Z,97482.41
2023-05-23T08:34:05.084Z,97485.31
2023-05-23T08:36:34.169Z,97478.66
2023-05-23T08:39:02.062Z,97481.50
2023-05-23T08:41:32.367Z,97493.09
2023-05-23T08:44:06.278Z,97489.03
2023-05-23T08:46:42.909Z,97494.25
2023-05-23T08:49:10.790Z,97496.34
2023-05-23T08:51:38.492Z,97496.84
2023-05-23T08:54:14.910Z,97502.44
2023-05-23T08:56:43.908Z,97501.66
2023-05-23T08:59:12.896Z,97502.00
2023-05-23T09:01:42.155Z,97508.47
2023-05-23T09:04:12.209Z,97501.34
2023-05-23T09:06:48.208Z,97507.81
2023-05-23T09:09:15.515Z,97504.97
2023-05-23T09:11:45.798Z,97502.53
2023-05-23T09:14:14.682Z,97505.72
2023-05-23T09:16:46.864Z,97500.16
2023-05-23T09:19:16.490Z,97502.28
2023-05-23T09:21:53.311Z,97497.88
2023-05-23T09:24:33.915Z,97501.81
2023-05-23T09:27:01.764Z,97503.47
2023-05-23T09:29:29.226Z,97503.91
2023-05-23T09:32:19.799Z,97496.66
2023-05-23T09:35:03.220Z,97497.91
2023-05-23T09:37:32.924Z,97507.97
2023-05-23T09:40:01.929Z,97503.56
2023-05-23T09:42:34.177Z,97503.94
2023-05-23T09:45:03.987Z,97491.13
2023-05-23T09:47:32.347Z,97488.69
2023-05-23T09:49:59.505Z,97486.31
2023-05-23T09:52:27.088Z,97491.91
2023-05-23T09:54:54.582Z,97483.50
2023-05-23T09:57:23.280Z,97479.06
2023-05-23T09:59:54.530Z,97472.66
2023-05-23T10:02:42.227Z,97457.41
2023-05-23T10:05:17.137Z,97476.69
2023-05-23T10:07:45.235Z,97466.66
2023-05-23T10:10:13.428Z,97454.19
2023-05-23T10:12:53.696Z,97456.59
2023-05-23T10:15:23.875Z,97461.41
2023-05-23T10:18:01.111Z,97461.00
2023-05-23T10:20:34.036Z,97455.81
2023-05-23T10:23:02.478Z,97457.78
2023-05-23T10:25:29.704Z,97453.38
2023-05-23T10:28:03.879Z,97454.59
2023-05-23T10:30:32.273Z,97466.22
2023-05-23T10:33:00.643Z,97470.66
2023-05-23T10:36:09.171Z,97471.03
2023-05-23T10:38:48.379Z,97472.25
2023-05-23T10:41:18.642Z,97474.25
2023-05-23T10:44:09.979Z,97479.84
2023-05-23T10:46:58.583Z,97479.84
2023-05-23T10:49:46.988Z,97491.03
2023-05-23T10:52:16.769Z,97483.44
2023-05-23T10:54:49.290Z,97484.22
2023-05-23T10:57:18.863Z,97481.84
2023-05-23T10:59:47.030Z,97485.44
2023-05-23T11:02:16.051Z,97486.94
2023-05-23T11:04:44.748Z,97475.78
2023-05-23T11:07:29.821Z,97477.41
2023-05-23T11:10:14.130Z,97478.63
2023-05-23T11:12:44.245Z,97476.63
2023-05-23T11:15:17.364Z,97479.44
2023-05-23T11:17:55.428Z,97479.06
2023-05-23T11:20:27.445Z,97487.88
2023-05-23T11:23:05.523Z,97482.28
2023-05-23T11:25:52.098Z,97479.09
2023-05-23T11:28:20.068Z,97473.88
2023-05-23T11:30:50.926Z,97461.84
2023-05-23T11:33:18.267Z,97463.03
2023-05-23T11:35:47.734Z,97454.19
2023-05-23T11:38:18.358Z,97448.53
2023-05-23T11:40:48.949Z,97457.81
2023-05-23T11:43:18.004Z,97465.81
2023-05-23T11:45:48.037Z,97455.75
2023-05-23T11:48:16.917Z,97463.34
2023-05-23T11:50:52.185Z,97465.75
2023-05-23T11:53:21.783Z,97465.41
2023-05-23T11:56:01.627Z,97470.63
2023-05-23T11:58:31.114Z,97471.44
2023-05-23T12:01:03.339Z,97475.88
2023-05-23T12:03:34.474Z,97467.81
2023-05-23T12:06:04.255Z,97460.56
2023-05-23T12:08:31.384Z,97468.13
2023-05-23T12:11:00.156Z,97474.59
2023-05-23T12:13:30.429Z,97476.16
2023-05-23T12:15:59.866Z,97482.66
2023-05-23T12:18:32.789Z,97478.63
2023-05-23T12:21:02.968Z,97487.50
2023-05-23T12:23:31.772Z,97479.50
2023-05-23T12:26:00.524Z,97485.13
2023-05-23T12:28:38.912Z,97496.34
2023-05-23T12:31:12.842Z,97489.13
2023-05-23T12:33:41.300Z,97489.94
2023-05-23T12:36:08.535Z,97493.13
2023-05-23T12:38:38.065Z,97493.13
2023-05-23T12:41:22.013Z,97508.75
2023-05-23T12:43:51.916Z,97496.34
2023-05-23T12:46:20.448Z,97500.34
2023-05-23T12:48:47.721Z,97512.41
2023-05-23T12:51:15.394Z,97509.97
2023-05-23T12:53:42.809Z,97504.78
2023-05-23T12:56:09.941Z,97495.16
2023-05-23T12:58:37.220Z,97491.94
2023-05-23T13:01:04.522Z,97490.72
2023-05-23T13:03:31.927Z,97487.88
2023-05-23T13:05:59.316Z,97483.44
2023-05-23T13:08:29.889Z,97482.28
2023-05-23T13:10:57.648Z,97483.47
2023-05-23T13:13:26.768Z,97481.44
2023-05-23T13:15:54.100Z,97469.00
2023-05-23T13:18:21.404Z,97483.44
2023-05-23T13:20:48.585Z,97484.63
2023-05-23T13:23:15.970Z,97481.75
2023-05-23T13:25:43.238Z,97482.59
2023-05-23T13:28:10.600Z,97478.06
2023-05-23T13:30:37.811Z,97471.69
2023-05-23T13:33:05.189Z,97482.06
2023-05-23T13:35:32.432Z,97470.03
2023-05-23T13:37:59.610Z,97475.34
2023-05-23T13:40:26.735Z,97470.06
2023-05-23T13:42:53.941Z,97467.38
2023-05-23T13:45:22.990Z,97466.53
2023-05-23T13:47:50.369Z,97471.31
2023-05-23T13:50:17.836Z,97460.91
2023-05-23T13:52:48.253Z,97468.84
2023-05-23T13:55:17.285Z,97467.09
2023-05-23T13:57:44.806Z,97466.31
2023-05-23T14:00:12.605Z,97480.72
2023-05-23T14:02:39.910Z,97480.25
2023-05-23T14:05:08.052Z,97482.47
2023-05-23T14:07:35.449Z,97476.31
2023-05-23T14:10:02.733Z,97484.22
2023-05-23T14:12:29.872Z,97480.06
2023-05-23T14:14:57.066Z,97485.69
2023-05-23T14:17:24.288Z,97476.34
2023-05-23T14:19:51.759Z,97473.81
2023-05-23T14:22:18.909Z,97474.97
2023-05-23T14:24:46.167Z,97473.28
2023-05-23T14:27:13.353Z,97479.16
2023-05-23T14:29:40.503Z,97474.53
2023-05-23T14:32:07.724Z,97477.97
2023-05-23T14:34:34.886Z,97474.03
2023-05-23T14:37:02.012Z,97478.78
2023-05-23T14:39:29.377Z,97482.41
2023-05-23T14:41:56.739Z,97480.38
2023-05-23T14:44:23.991Z,97484.50
2023-05-23T14:46:51.482Z,97484.59
2023-05-23T14:49:18.734Z,97480.31
2023-05-23T14:51:51.116Z,97483.22
2023-05-23T14:54:19.351Z,97482.47
2023-05-23T14:56:46.672Z,97484.94
2023-05-23T14:59:14.027Z,97486.25
2023-05-23T15:01:41.636Z,97483.41
2023-05-23T15:04:09.880Z,97483.75
2023-05-23T15:06:39.075Z,97482.94
2023-05-23T15:09:07.456Z,97488.59
2023-05-23T15:11:42.274Z,97491.72
2023-05-23T15:14:09.568Z,97489.38
2023-05-23T15:16:37.398Z,97484.25
2023-05-23T15:19:05.577Z,97494.31
2023-05-23T15:21:32.858Z,97502.31
2023-05-23T15:24:00.147Z,97511.16
2023-05-23T15:26:27.510Z,97503.91
2023-05-23T15:28:54.995Z,97513.91
2023-05-23T15:31:22.376Z,97508.72
2023-05-23T15:33:49.621Z,97507.94
2023-05-23T15:36:16.800Z,97517.53
2023-05-23T15:38:44.383Z,97515.03
2023-05-23T15:41:11.813Z,97520.31
2023-05-23T15:43:38.984Z,97528.72
2023-05-23T15:46:06.281Z,97528.31
2023-05-23T15:48:33.442Z,97523.53
2023-05-23T15:51:00.669Z,97535.22
2023-05-23T15:53:28.438Z,97532.63
2023-05-23T15:55:56.919Z,97539.09
2023-05-23T15:58:24.094Z,97553.28
2023-05-23T16:00:51.352Z,97546.28
2023-05-23T16:03:18.484Z,97544.31
2023-05-23T16:05:46.123Z,97551.59
2023-05-23T16:08:13.273Z,97548.78
2023-05-23T16:10:40.552Z,97547.13
2023-05-23T16:13:08.955Z,97544.69
2023-05-23T16:15:36.112Z,97541.84
2023-05-23T16:18:03.857Z,97535.28
2023-05-23T16:20:31.133Z,97544.47
2023-05-23T16:22:58.288Z,97546.63
2023-05-23T16:25:25.541Z,97548.06
2023-05-23T16:27:52.690Z,97547.28
2023-05-23T16:30:20.207Z,97550.94
2023-05-23T16:32:47.378Z,97545.69
2023-05-23T16:35:14.608Z,97565.38
2023-05-23T16:37:41.795Z,97555.72
2023-05-23T16:40:09.209Z,97559.75
2023-05-23T16:42:36.846Z,97558.53
2023-05-23T16:45:04.802Z,97558.91
2023-05-23T16:47:32.288Z,97567.41
2023-05-23T16:49:59.536Z,97576.63
2023-05-23T16:52:26.745Z,97574.22
2023-05-23T16:54:55.692Z,97565.78
2023-05-23T16:57:22.947Z,97564.97
2023-05-23T16:59:50.137Z,97562.94
2023-05-23T17:02:17.338Z,97567.34
2023-05-23T17:04:45.019Z,97578.59
2023-05-23T17:07:12.256Z,97572.59
2023-05-23T17:09:39.749Z,97574.22
2023-05-23T17:12:07.420Z,97579.44
2023-05-23T17:14:34.700Z,97573.81
2023-05-23T17:17:03.415Z,97573.81
2023-05-23T17:19:30.753Z,97581.47
2023-05-23T17:22:00.955Z,97588.25
2023-05-23T17:24:28.522Z,97585.06
2023-05-23T17:26:55.665Z,97583.00
2023-05-23T17:29:22.822Z,97590.53
2023-05-23T17:31:50.011Z,97591.78
2023-05-23T17:37:22.782Z,97597.34
2023-05-23T17:39:59.479Z,97594.13
2023-05-23T17:43:00.194Z,97593.69
2023-05-23T17:46:34.137Z,97592.50
2023-05-23T17:49:07.852Z,97598.06
2023-05-23T17:51:39.259Z,97599.16
2023-05-23T17:54:07.195Z,97607.22
2023-05-23T17:56:34.422Z,97597.19
2023-05-23T17:59:15.080Z,97600.47
2023-05-23T18:01:53.254Z,97613.69
2023-05-23T18:04:24.511Z,97608.34
2023-05-23T18:06:51.928Z,97609.16
2023-05-23T18:09:19.766Z,97612.28
2023-05-23T18:11:47.198Z,97614.34
2023-05-23T18:14:14.751Z,97609.50
2023-05-23T18:16:42.251Z,97612.81
2023-05-23T18:19:09.768Z,97618.66
2023-05-23T18:21:45.250Z,97611.06
2023-05-23T18:24:18.296Z,97614.53
2023-05-23T18:26:46.321Z,97628.09
2023-05-23T18:29:31.723Z,97619.84
2023-05-23T18:31:59.021Z,97625.84
2023-05-23T18:34:29.428Z,97627.28
2023-05-23T18:36:56.778Z,97630.69
2023-05-23T18:39:24.241Z,97636.56
2023-05-23T18:41:57.924Z,97633.44
2023-05-23T18:44:25.361Z,97642.81
2023-05-23T18:46:52.827Z,97633.56
2023-05-23T18:49:20.222Z,97640.84
2023-05-23T18:51:47.766Z,97653.31
2023-05-23T18:54:15.176Z,97657.75
2023-05-23T18:56:59.018Z,97652.00
2023-05-23T18:59:27.049Z,97661.47
2023-05-23T19:01:54.415Z,97666.34
2023-05-23T19:04:31.266Z,97674.66
2023-05-23T19:06:58.638Z,97683.03
2023-05-23T19:09:28.764Z,97683.47
2023-05-23T19:12:04.473Z,97688.31
2023-05-23T19:14:31.797Z,97703.41
2023-05-23T19:16:59.913Z,97695.91
2023-05-23T19:19:30.038Z,97713.72
2023-05-23T19:21:59.047Z,97711.00
2023-05-23T19:24:27.502Z,97717.69
2023-05-23T19:26:56.209Z,97714.84
2023-05-23T19:29:23.703Z,97720.16
2023-05-23T19:31:51.034Z,97717.38
2023-05-23T19:34:18.351Z,97727.91
2023-05-23T19:36:45.731Z,97725.38
2023-05-23T19:39:13.065Z,97731.06
2023-05-23T19:41:48.879Z,97729.31
2023-05-23T19:44:16.270Z,97740.59
2023-05-23T19:46:43.742Z,97741.19
2023-05-23T19:49:12.016Z,97743.53
2023-05-23T19:51:39.338Z,97743.84
2023-05-23T19:54:06.738Z,97755.81
2023-05-23T19:56:35.896Z,97754.63
2023-05-23T19:59:03.295Z,97752.50
2023-05-23T20:01:34.170Z,97766.50
2023-05-23T20:04:13.254Z,97763.25
2023-05-23T20:06:58.917Z,97761.63
2023-05-23T20:09:28.889Z,97766.88
2023-05-23T20:11:59.388Z,97775.09
2023-05-23T20:14:28.161Z,97777.50
2023-05-23T20:16:56.592Z,97774.81
2023-05-23T20:19:24.345Z,97781.09
2023-05-23T20:22:21.806Z,97792.56
2023-05-23T20:24:49.127Z,97783.91
2023-05-23T20:27:18.046Z,97777.84
2023-05-23T20:29:51.616Z,97790.19
2023-05-23T20:32:28.480Z,97777.94
2023-05-23T20:35:18.650Z,97782.94
2023-05-23T20:37:51.316Z,97786.72
2023-05-23T20:40:18.713Z,97797.16
2023-05-23T20:42:46.250Z,97793.72
2023-05-23T20:45:14.054Z,97792.50
2023-05-23T20:47:42.356Z,97771.66
2023-05-23T20:50:11.866Z,97782.91
2023-05-23T20:52:41.414Z,97798.72
2023-05-23T20:55:10.008Z,97790.16
2023-05-23T20:57:37.834Z,97789.34
2023-05-23T21:00:13.123Z,97803.81
2023-05-23T21:02:41.708Z,97808.38
2023-05-23T21:05:10.740Z,97806.22
2023-05-23T21:07:38.491Z,97813.03
2023-05-23T21:10:06.480Z,97814.84
2023-05-23T21:12:33.977Z,97809.75
2023-05-23T21:15:17.689Z,97827.06
2023-05-23T21:17:45.768Z,97815.66
2023-05-23T21:20:13.504Z,97820.25
2023-05-23T21:22:41.125Z,97829.78
2023-05-23T21:25:08.859Z,97824.63
2023-05-23T21:27:36.062Z,97823.03
2023-05-23T21:30:05.256Z,97815.63
2023-05-23T21:32:33.132Z,97822.78
2023-05-23T21:35:00.497Z,97833.53
2023-05-23T21:37:30.467Z,97827.91
2023-05-23T21:39:57.775Z,97824.94
2023-05-23T21:42:25.619Z,97832.59
2023-05-23T21:44:52.961Z,97828.47
2023-05-23T21:47:21.387Z,97823.13
2023-05-23T21:49:48.821Z,97826.63
2023-05-23T21:52:16.509Z,97831.56
2023-05-23T21:54:45.971Z,97825.81
2023-05-23T21:57:13.403Z,97833.91
2023-05-23T21:59:41.671Z,97833.53
2023-05-23T22:02:09.010Z,97843.28
2023-05-23T22:04:37.026Z,97845.50
2023-05-23T22:07:07.075Z,97847.03
2023-05-23T22:09:34.591Z,97846.94
2023-05-23T22:12:05.655Z,97848.03
2023-05-23T22:14:36.277Z,97863.31
2023-05-23T22:17:04.643Z,97855.50
2023-05-23T22:19:31.855Z,97861.41
2023-05-23T22:21:59.223Z,97856.22
2023-05-23T22:24:32.929Z,97867.34
2023-05-23T22:27:03.349Z,97866.00
2023-05-23T22:29:31.060Z,97860.44
2023-05-23T22:31:58.437Z,97866.31
2023-05-23T22:34:25.800Z,97879.03
2023-05-23T22:36:53.189Z,97872.56
2023-05-23T22:39:20.488Z,97871.13
2023-05-23T22:41:56.028Z,97873.44
2023-05-23T22:44:28.041Z,97864.03
2023-05-23T22:47:24.292Z,97867.59
2023-05-23T22:50:04.304Z,97864.44
2023-05-23T22:52:37.109Z,97863.09
2023-05-23T22:55:08.404Z,97861.06
2023-05-23T22:57:40.835Z,97867.88
2023-05-23T23:00:11.391Z,97871.03
2023-05-23T23:02:38.955Z,97859.25
2023-05-23T23:05:06.832Z,97870.72
2023-05-23T23:07:34.218Z,97872.63
2023-05-23T23:10:01.895Z,97877.16
2023-05-23T23:12:29.372Z,97871.59
2023-05-23T23:14:56.773Z,97876.78
2023-05-23T23:17:24.171Z,97861.44
2023-05-23T23:19:51.596Z,97864.72
2023-05-23T23:22:21.528Z,97868.97
2023-05-23T23:24:55.822Z,97865.78
2023-05-23T23:27:30.974Z,97875.69
2023-05-23T23:29:59.198Z,97866.06
2023-05-23T23:32:26.849Z,97861.41
2023-05-23T23:34:54.198Z,97864.72
2023-05-23T23:37:21.726Z,97857.41
2023-05-23T23:39:49.057Z,97867.81
2023-05-23T23:45:04.596Z,97874.53
2023-05-23T23:47:47.839Z,97879.06
2023-05-23T23:50:15.494Z,97861.78
2023-05-23T23:52:45.983Z,97856.28
2023-05-23T23:55:13.430Z,97865.16
2023-05-23T23:57:41.077Z,97859.88
